Latest Weather Observations for Pearce

IDW60901

Issued at 4:51 am WST Thursday 22 February 2018 (issued every 10 minutes, with the page automatically refreshed every 10 minutes)

About weather observations | Map of Perth area stations | Latest observations for Perth area | Other Formats
Station Details ID: 009053 Name: PEARCE RAAF Lat: -31.67 Lon: 116.02 Height: 40.0 m
Data from the previous 72 hours. | See also: Recent months at Pearce
Date/Time
WST
Temp
°C
App
Temp
°C
Dew
Point
°C
Rel
Hum
%
Delta-T
°C
Wind Press
QNH
hPa
Press
MSL
hPa
Rain since
9am
mm
Dir  Spd
km/h
Gust
km/h
Spd
kts
Gust
kts
22/04:30am 13.8 12.3 11.8 88 1.1 SSW 11 13 6 7 1007.5 1007.3 0.0
22/04:00am 13.9 14.5 11.9 88 1.1 CALM 0 0 0 0 1007.3 1007.1 0.0
22/03:30am 13.2 11.9 11.3 88 1.0 SSW 9 11 5 6 1007.2 1007.0 0.0
22/03:00am 14.2 13.3 11.4 83 1.5 SSW 7 9 4 5 1007.3 1007.1 0.0
22/02:30am 14.9 14.0 12.6 86 1.3 SSW 9 11 5 6 1007.5 1007.3 0.0
22/02:00am 13.9 12.6 11.1 83 1.5 SSW 9 11 5 6 1007.5 1007.3 0.0
22/01:30am 15.0 14.3 12.0 82 1.6 SSW 7 9 4 5 1007.5 1007.3 0.0
22/01:00am 15.6 15.3 12.7 83 1.6 SSW 6 7 3 4 1007.7 1007.5 0.0
22/12:30am 15.7 16.5 12.5 81 1.8 CALM 0 0 0 0 1008.1 1007.9 0.0
22/12:00am 16.7 17.3 12.0 74 2.6 CALM 0 0 0 0 1008.2 1008.0 0.0
 
Date/Time
WST
Temp
°C
App
Temp
°C
Dew
Point
°C
Rel
Hum
%
Delta-T
°C
Wind Press
QNH
hPa
Press
MSL
hPa
Rain since
9am
mm
Dir  Spd
km/h
Gust
km/h
Spd
kts
Gust
kts
21/11:30pm 18.0 19.0 13.3 74 2.7 CALM 0 0 0 0 1008.3 1008.1 0.0
21/11:00pm 17.9 18.5 13.0 73 2.8 SSW 2 6 1 3 1008.6 1008.4 0.0
21/10:30pm 18.8 18.7 13.4 71 3.1 SSW 6 7 3 4 1008.8 1008.6 0.0
21/10:00pm 18.8 19.8 13.2 70 3.2 CALM 0 0 0 0 1009.0 1008.8 0.0
21/09:30pm 18.5 18.0 12.7 69 3.3 SSW 7 9 4 5 1009.1 1008.9 0.0
21/09:00pm 19.1 18.8 12.8 67 3.6 SSW 6 7 3 4 1009.1 1008.9 0.0
21/08:30pm 19.7 19.2 12.7 64 3.9 SSW 7 11 4 6 1008.8 1008.6 0.0
21/08:00pm 20.5 18.9 12.7 61 4.4 SSW 13 17 7 9 1008.6 1008.4 0.0
21/07:30pm 21.4 18.7 12.8 58 4.9 SSW 19 24 10 13 1008.3 1008.1 0.0
21/07:00pm 22.3 19.6 12.8 55 5.4 SSW 19 24 10 13 1008.2 1008.0 0.0
21/06:30pm 23.7 20.8 13.0 51 6.2 SW 20 28 11 15 1007.9 1007.7 0.0
21/06:00pm 24.9 21.2 12.8 47 7.0 SW 24 32 13 17 1007.6 1007.4 0.0
21/05:30pm 26.3 22.2 12.7 43 7.9 SW 26 35 14 19 1007.1 1006.9 0.0
21/05:00pm 27.8 23.8 13.0 40 8.7 SW 26 37 14 20 1006.9 1006.7 0.0
21/04:30pm 28.6 24.4 12.5 37 9.4 WSW 26 33 14 18 1006.8 1006.6 0.0
21/04:00pm 29.2 25.8 12.6 36 9.8 SW 22 32 12 17 1006.5 1006.3 0.0
21/03:30pm 30.3 29.0 11.3 31 11.0 E 9 20 5 11 1006.5 1006.3 0.0
21/03:00pm 29.6 28.9 12.1 34 10.3 ENE 7 11 4 6 1006.8 1006.6 0.0
21/02:30pm 29.0 27.5 12.0 35 9.9 ENE 11 20 6 11 1006.9 1006.7 0.0
21/02:00pm 29.5 28.0 12.0 34 10.2 SE 11 17 6 9 1007.2 1007.0 0.0
21/01:30pm 28.7 27.3 12.2 36 9.6 S 11 24 6 13 1007.8 1007.6 0.0
21/01:00pm 27.8 26.9 12.6 39 8.9 E 9 19 5 10 1008.1 1007.9 0.0
21/12:30pm 27.1 25.6 12.0 39 8.7 SE 11 22 6 12 1008.3 1008.1 0.0
21/12:00pm 26.9 25.3 11.4 38 8.9 E 11 24 6 13 1008.8 1008.6 0.0
21/11:30am 25.9 24.0 10.5 38 8.6 ESE 11 24 6 13 1009.4 1009.2 0.0
21/11:00am 25.1 22.4 11.6 42 7.7 E 17 22 9 12 1009.9 1009.7 0.0
21/10:30am 24.6 21.8 12.5 46 7.0 E 19 28 10 15 1010.0 1009.8 0.0
21/10:00am 23.8 20.8 12.4 48 6.5 E 20 32 11 17 1010.4 1010.2 0.0
21/09:30am 23.0 20.6 12.6 52 5.9 E 17 24 9 13 1010.7 1010.5 0.0
21/09:00am 22.0 19.6 12.5 54 5.4 ESE 17 32 9 17 1010.7 1010.5 0.0
21/08:30am 20.5 16.9 12.0 58 4.8 E 22 41 12 22 1010.6 1010.4 0.0
21/08:00am 19.3 14.5 11.8 62 4.2 E 28 43 15 23 1010.8 1010.6 0.0
21/07:30am 18.3 14.2 11.6 65 3.7 ESE 24 43 13 23 1010.8 1010.6 0.0
21/07:00am 17.4 14.0 11.4 68 3.3 ESE 20 35 11 19 1010.8 1010.6 0.0
21/06:30am 16.8 13.4 11.3 70 3.0 E 20 30 11 16 1010.9 1010.7 0.0
21/06:00am 16.5 12.3 11.0 70 3.0 E 24 33 13 18 1010.5 1010.3 0.0
21/05:30am 16.6 11.6 10.9 69 3.1 E 28 48 15 26 1010.1 1009.9 0.0
21/05:06am 16.8 11.0 10.9 68 3.2 E 32 50 17 27 1009.9 1009.7 0.0
21/05:00am 16.7 10.6 10.5 67 3.3 E 33 46 18 25 1010.0 1009.8 0.0
21/04:30am 16.8 10.9 10.6 67 3.3 E 32 48 17 26 1010.1 1009.9 0.0
21/04:16am 16.9 11.4 10.5 66 3.4 E 30 48 16 26 1010.2 1010.0 0.0
21/04:00am 16.9 11.0 10.5 66 3.4 E 32 48 17 26 1010.2 1010.0 0.0
21/03:30am 17.2 10.7 10.3 64 3.7 E 35 56 19 30 1010.2 1010.0 0.0
21/03:00am 17.3 11.3 10.2 63 3.8 E 32 52 17 28 1010.2 1010.0 0.0
21/02:30am 17.7 11.1 10.1 61 4.0 E 35 56 19 30 1010.3 1010.1 0.0
21/02:00am 18.0 11.0 10.1 60 4.2 E 37 56 20 30 1010.2 1010.0 0.0
21/01:30am 18.3 10.8 9.6 57 4.6 ESE 39 59 21 32 1010.5 1010.3 0.0
21/01:00am 18.7 11.1 9.2 54 5.0 E 39 59 21 32 1010.4 1010.2 0.0
21/12:33am 19.1 12.2 8.7 51 5.4 ESE 35 54 19 29 1010.8 1010.6 0.0
21/12:30am 19.1 11.7 8.4 50 5.6 ESE 37 54 20 29 1010.7 1010.5 0.0
21/12:00am 19.8 12.2 7.5 45 6.3 ESE 37 57 20 31 1010.9 1010.7 0.0
 
Date/Time
WST
Temp
°C
App
Temp
°C
Dew
Point
°C
Rel
Hum
%
Delta-T
°C
Wind Press
QNH
hPa
Press
MSL
hPa
Rain since
9am
mm
Dir  Spd
km/h
Gust
km/h
Spd
kts
Gust
kts
20/11:35pm 20.7 14.4 5.5 37 7.5 ESE 28 46 15 25 1011.1 1010.9 0.0
20/11:30pm 20.9 13.8 5.7 37 7.6 ESE 32 46 17 25 1011.1 1010.9 0.0
20/11:19pm 21.4 14.3 5.3 35 8.0 ESE 32 52 17 28 1011.1 1010.9 0.0
20/11:00pm 21.9 14.1 4.9 33 8.4 ESE 35 52 19 28 1011.2 1011.0 0.0
20/10:30pm 22.7 15.2 4.7 31 8.9 ESE 33 52 18 28 1011.2 1011.0 0.0
20/10:06pm 23.3 16.1 5.2 31 9.1 ESE 32 50 17 27 1011.0 1010.8 0.0
20/10:00pm 23.3 17.3 5.2 31 9.1 ESE 26 41 14 22 1011.1 1010.9 0.0
20/09:30pm 24.1 18.4 5.0 29 9.6 ESE 24 35 13 19 1011.1 1010.9 0.0
20/09:00pm 24.0 19.8 5.8 31 9.3 ESE 17 22 9 12 1011.0 1010.8 0.0
20/08:30pm 23.5 21.0 6.7 34 8.7 SE 9 13 5 7 1010.8 1010.6 0.0
20/08:00pm 24.2 21.0 6.9 33 9.0 SE 13 19 7 10 1010.6 1010.4 0.0
20/07:30pm 25.4 22.7 7.5 32 9.5 SSE 11 17 6 9 1010.3 1010.1 0.0
20/07:00pm 26.3 22.9 7.8 31 9.9 SE 15 24 8 13 1010.0 1009.8 0.0
20/06:30pm 27.1 23.0 8.5 31 10.1 SE 20 30 11 16 1009.9 1009.7 0.0
20/06:00pm 27.8 23.6 9.6 32 10.1 SE 22 32 12 17 1009.7 1009.5 0.0
20/05:30pm 28.7 24.4 9.4 30 10.8 ESE 22 37 12 20 1009.6 1009.4 0.0
20/05:00pm 29.1 24.9 9.8 30 10.9 SE 22 33 12 18 1009.6 1009.4 0.0
20/04:30pm 29.8 26.5 10.9 31 10.8 SSE 19 33 10 18 1009.7 1009.5 0.0
20/04:00pm 29.2 26.1 10.3 31 10.7 SSE 17 33 9 18 1009.8 1009.6 0.0
20/03:30pm 29.8 26.3 10.9 31 10.8 SE 20 33 11 18 1009.8 1009.6 0.0
20/03:00pm 29.4 25.8 10.5 31 10.8 SE 20 32 11 17 1009.9 1009.7 0.0
20/02:30pm 29.4 25.9 11.0 32 10.6 SE 20 33 11 18 1010.2 1010.0 0.0
20/02:00pm 29.2 26.2 10.8 32 10.5 SE 17 28 9 15 1010.5 1010.3 0.0
20/01:30pm 28.9 25.3 10.6 32 10.4 ESE 20 33 11 18 1011.1 1010.9 0.0
20/01:00pm 28.0 24.4 10.7 34 9.8 SE 20 35 11 19 1011.4 1011.2 0.0
20/12:30pm 27.2 23.7 10.8 36 9.3 ESE 20 33 11 18 1011.9 1011.7 0.0
20/12:00pm 25.9 21.8 11.3 40 8.3 SE 24 35 13 19 1012.4 1012.2 0.0
20/11:30am 26.2 23.1 11.5 40 8.4 ESE 19 32 10 17 1012.9 1012.7 0.0
20/11:00am 24.3 20.6 11.6 45 7.2 SE 22 46 12 25 1013.2 1013.0 0.0
20/10:30am 24.6 21.8 12.5 46 7.0 ESE 19 32 10 17 1013.5 1013.3 0.0
20/10:00am 22.4 17.0 12.1 52 5.8 SE 32 41 17 22 1013.9 1013.7 0.0
20/09:30am 22.1 18.3 12.4 54 5.5 SSE 24 33 13 18 1013.9 1013.7 0.0
20/09:00am 23.1 19.6 13.3 54 5.7 ESE 24 32 13 17 1013.9 1013.7 0.0
20/08:30am 21.0 16.9 12.7 59 4.7 ESE 26 37 14 20 1013.9 1013.7 0.0
20/08:00am 20.8 18.0 13.3 62 4.3 SE 20 28 11 15 1013.8 1013.6 0.0
20/07:30am 20.3 17.2 13.3 64 4.0 SE 22 33 12 18 1013.8 1013.6 0.0
20/07:00am 20.2 16.9 12.7 62 4.2 SE 22 32 12 17 1013.6 1013.4 0.0
20/06:30am 20.1 17.3 12.6 62 4.2 SE 19 32 10 17 1013.4 1013.2 0.0
20/06:00am 19.9 17.0 12.4 62 4.2 SE 19 26 10 14 1013.2 1013.0 0.0
20/05:30am 19.8 15.3 12.6 63 4.1 SE 28 35 15 19 1012.9 1012.7 0.0
20/05:00am 19.9 17.0 12.9 64 4.0 ESE 20 30 11 16 1012.6 1012.4 0.0
20/04:30am 20.3 16.3 13.0 63 4.2 ESE 26 37 14 20 1012.4 1012.2 0.0
20/04:00am 20.9 18.1 13.1 61 4.5 SE 20 28 11 15 1012.0 1011.8 0.0
20/03:30am 21.1 18.3 13.3 61 4.5 SE 20 24 11 13 1011.8 1011.6 0.0
20/03:00am 21.0 18.4 13.2 61 4.5 SE 19 32 10 17 1011.8 1011.6 0.0
20/02:30am 20.9 18.6 13.1 61 4.5 SE 17 28 9 15 1011.7 1011.5 0.0
20/02:00am 21.0 20.0 13.4 62 4.4 SE 11 20 6 11 1011.7 1011.5 0.0
20/01:30am 21.0 18.5 13.4 62 4.4 SE 19 30 10 16 1011.6 1011.4 0.0
20/01:00am 20.5 18.4 13.5 64 4.0 SE 17 24 9 13 1011.6 1011.4 0.0
20/12:30am 20.5 18.0 13.5 64 4.0 SE 19 24 10 13 1011.5 1011.3 0.0
20/12:00am 20.7 18.7 13.9 65 3.9 SE 17 37 9 20 1011.5 1011.3 0.0
 
Date/Time
WST
Temp
°C
App
Temp
°C
Dew
Point
°C
Rel
Hum
%
Delta-T
°C
Wind Press
QNH
hPa
Press
MSL
hPa
Rain since
9am
mm
Dir  Spd
km/h
Gust
km/h
Spd
kts
Gust
kts
19/11:30pm 21.2 19.3 14.1 64 4.1 SSE 17 24 9 13 1011.3 1011.1 0.0
19/11:00pm 21.8 18.6 14.2 62 4.4 SE 24 39 13 21 1011.1 1010.9 0.0
19/10:30pm 22.3 20.4 15.2 64 4.2 SSE 19 32 10 17 1010.7 1010.5 0.0
19/10:00pm 21.1 19.6 15.2 69 3.5 S 17 20 9 11 1010.4 1010.2 0.0
19/09:30pm 21.6 19.5 15.2 67 3.8 S 20 24 11 13 1009.9 1009.7 0.0
19/09:00pm 21.9 20.0 15.3 66 3.9 SSW 19 26 10 14 1009.7 1009.5 0.0
19/08:30pm 22.0 20.9 16.3 70 3.5 SSW 17 20 9 11 1009.3 1009.1 0.0
19/08:00pm 22.4 21.1 16.7 70 3.5 SSW 19 30 10 16 1009.0 1008.8 0.0
19/07:30pm 22.2 20.1 17.1 73 3.1 SW 24 32 13 17 1008.7 1008.5 0.0
19/07:00pm 22.7 19.0 16.9 70 3.6 SW 32 41 17 22 1008.3 1008.1 0.0
19/06:30pm 23.5 19.6 16.5 65 4.3 SW 32 43 17 23 1007.9 1007.7 0.0
19/06:00pm 24.5 21.0 16.5 61 4.9 SSW 30 43 16 23 1007.7 1007.5 0.0
19/05:30pm 25.0 20.6 16.7 60 5.1 SW 35 50 19 27 1007.6 1007.4 0.0
19/05:00pm 26.1 22.0 16.4 55 6.0 SW 33 48 18 26 1007.6 1007.4 0.0
19/04:30pm 27.2 23.0 16.2 51 6.8 SSW 33 46 18 25 1007.4 1007.2 0.0
19/04:00pm 28.0 24.3 16.9 51 7.0 SW 32 44 17 24 1007.3 1007.1 0.0
19/03:30pm 28.0 24.2 16.6 50 7.1 SW 32 44 17 24 1007.2 1007.0 0.0
19/03:00pm 29.3 25.9 16.8 47 7.9 SW 30 41 16 22 1007.2 1007.0 0.0
19/02:30pm 28.1 24.4 16.1 48 7.4 SW 30 46 16 25 1007.1 1006.9 0.0
19/02:00pm 29.8 27.2 15.9 43 8.6 SSW 24 33 13 18 1007.3 1007.1 0.0
19/01:30pm 28.9 26.0 15.1 43 8.4 SW 24 37 13 20 1007.6 1007.4 0.0
19/01:00pm 29.2 26.9 15.7 44 8.3 SW 22 33 12 18 1007.8 1007.6 0.0
19/12:30pm 29.2 26.2 13.8 39 9.2 SSW 22 35 12 19 1008.0 1007.8 0.0
19/12:00pm 28.0 25.3 13.5 41 8.6 SSW 20 32 11 17 1008.3 1008.1 0.0
19/11:30am 26.8 24.3 13.5 44 7.9 S 19 32 10 17 1008.6 1008.4 0.0
19/11:00am 26.2 23.4 13.3 45 7.6 SW 20 33 11 18 1008.9 1008.7 0.0
19/10:30am 25.0 22.3 13.5 48 6.7 SSW 20 32 11 17 1009.2 1009.0 0.0
19/10:00am 25.1 22.4 14.6 52 6.3 S 22 32 12 17 1009.3 1009.1 0.0
19/09:30am 23.6 21.5 14.6 57 5.3 SE 19 26 10 14 1009.4 1009.2 0.0
19/09:00am 22.3 19.3 14.9 63 4.4 SSW 24 30 13 16 1009.5 1009.3 0.0
19/08:30am 21.7 19.0 15.5 68 3.7 S 24 33 13 18 1009.4 1009.2 0.0
19/08:00am 21.3 19.3 16.5 74 2.9 SSE 22 30 12 16 1009.2 1009.0 0.0
19/07:30am 20.8 18.9 16.6 77 2.5 SSE 22 28 12 15 1009.2 1009.0 0.0
19/07:00am 20.7 18.1 16.9 79 2.3 S 26 33 14 18 1008.7 1008.5 0.0
19/06:30am 20.3 18.9 16.9 81 2.1 SSE 20 28 11 15 1008.6 1008.4 0.0
19/06:00am 20.1 18.4 17.1 83 1.8 SSE 22 30 12 16 1008.4 1008.2 0.0
19/05:30am 20.5 19.3 17.1 81 2.1 SSE 19 22 10 12 1008.2 1008.0 0.0
19/05:00am 20.8 19.4 17.0 79 2.3 SSE 20 28 11 15 1008.1 1007.9 0.0

Latest Capital City Observations: Canberra | Sydney | Melbourne | Brisbane | Adelaide | Perth | Hobart | Darwin

Other Formats:

Comma delimited format used in spreadsheet applications
http://www.bom.gov.au/fwo/IDW60901/IDW60901.94612.axf

JavaScript Object Notation format (JSON) in row-major order
http://www.bom.gov.au/fwo/IDW60901/IDW60901.94612.json